Airfield :
LOGIN :

Register | Disclaimer

   EN    FR    IT 

 










Legend :    VFR   Marginal VFR   IFR   Intensive IFR   Very Intensive IFR
Visi :
Ceiling :
>= 8 km
>= 3000ft
5 to 8 km
1000 to 3000 ft
1500m to 5 km
500 to 1000 ft
800 to 1500m
200 to 500 ft
< 800m
< 200 ft
Symbols :   Thunderstorms  Fog  Heavy snow  Heavy precipitations  Wind > 20 kt
SIGMETs :     Misc.  Thunderstorms  Icing  Turbulence  Mountain Waves  Volcanic Ashes






- Airport Elevation : 1299 ft


EDTY - Adolf Würth

CURRENT METAR :
  • 181250Z 12007KT 090V160 CAVOK 26/11 Q1023

EXPIRED METARs :
  • 181220Z 08009KT 050V130 CAVOK 25/12 Q1023
  • 181150Z 10006KT 030V170 CAVOK 25/12 Q1023
  • 181120Z 11005KT 030V180 CAVOK 25/11 Q1024
  • 181050Z 10007KT 040V140 CAVOK 25/10 Q1024
  • 181020Z 17005KT 080V240 CAVOK 24/10 Q1024

TAF TAF EDTY
Valid from the 18 at 12:00 until the 18 at 21:00 UTC


181100Z 1812/1821 08006KT CAVOK



MET'MAP, your aeronautical weather chart ! - Copyright ORBIFLY December 2007 - Disclaimer

ORBIFLY MET'MAP TEAM :

Programming & Development : Alexandra Zaïnal
Original concept : Baudouin d'Aumeries
Technical & hardware support : Manuel Goepfert
Assistance : Marc-Olivier Méhu

Contact : metmap@orbifly.com




SOURCES & CREDITS :

   NOAA